Time;durP1;ratioP1;P1;durP2;ratioP2;P2;SDS_P1;SDS_P2;PMS_P1;PMS_P2;Temp;Humidity;BMP_temperature;BMP_pressure;BME280_temperature;BME280_humidity;BME280_pressure;Samples;Min_cycle;Max_cycle;Signal;HPM_P1;HPM_P2
2023/07/21 00:00:18;;;;;;;0.10;0.10;;;15.60;99.90;;;;;;5027271;28;20048;-67
2023/07/21 00:02:44;;;;;;;0.00;0.00;;;15.60;99.90;;;;;;5024729;28;20091;-67
2023/07/21 00:05:09;;;;;;;0.00;0.00;;;15.50;99.90;;;;;;5018346;28;20034;-67
2023/07/21 00:07:36;;;;;;;0.03;0.03;;;15.50;99.90;;;;;;5031881;28;20067;-67
2023/07/21 00:10:09;;;;;;;0.00;0.00;;;15.50;99.90;;;;;;5028838;28;20048;-67
2023/07/21 00:12:35;;;;;;;0.00;0.00;;;15.50;99.90;;;;;;5018951;28;20044;-67
2023/07/21 00:15:02;;;;;;;0.28;0.20;;;15.50;99.90;;;;;;5031584;28;20037;-67
2023/07/21 00:17:30;;;;;;;1.00;0.90;;;15.40;99.90;;;;;;5021428;28;20137;-67
2023/07/21 00:19:58;;;;;;;0.00;0.00;;;15.50;99.90;;;;;;5025120;28;20048;-67
2023/07/21 00:22:25;;;;;;;0.10;0.10;;;15.40;99.90;;;;;;5028746;28;20041;-67
2023/07/21 00:24:51;;;;;;;0.00;0.00;;;15.30;99.90;;;;;;5027378;28;20055;-67
2023/07/21 00:27:17;;;;;;;0.00;0.00;;;15.30;99.90;;;;;;5014250;28;20057;-67
2023/07/21 00:29:43;;;;;;;0.20;0.20;;;15.40;99.90;;;;;;5024874;28;20045;-67
2023/07/21 00:32:09;;;;;;;0.20;0.20;;;15.40;99.90;;;;;;5026590;28;20421;-67
2023/07/21 00:34:35;;;;;;;0.10;0.10;;;15.40;99.90;;;;;;5020906;28;20049;-67
2023/07/21 00:37:01;;;;;;;0.32;0.22;;;15.40;99.90;;;;;;5021091;28;20077;-67
2023/07/21 00:39:26;;;;;;;0.73;0.57;;;15.40;99.90;;;;;;5014205;28;20496;-67
2023/07/21 00:41:52;;;;;;;0.00;0.00;;;15.40;99.90;;;;;;5023095;28;20050;-67
2023/07/21 00:44:18;;;;;;;0.00;0.00;;;15.30;99.90;;;;;;5023529;28;20081;-67
2023/07/21 00:46:44;;;;;;;0.03;0.03;;;15.40;99.90;;;;;;5030952;28;20072;-67
2023/07/21 00:49:10;;;;;;;0.47;0.47;;;15.40;99.90;;;;;;5031522;28;20120;-67
2023/07/21 00:51:37;;;;;;;0.00;0.00;;;15.40;99.90;;;;;;5021139;28;20050;-67
2023/07/21 00:54:02;;;;;;;0.10;0.10;;;15.30;99.90;;;;;;5022485;28;20405;-67
2023/07/21 00:56:28;;;;;;;0.17;0.17;;;15.20;99.90;;;;;;5025487;28;20046;-67
2023/07/21 00:58:54;;;;;;;0.20;0.20;;;15.20;99.90;;;;;;5017645;28;20433;-67
2023/07/21 01:01:22;;;;;;;0.00;0.00;;;15.20;99.90;;;;;;5023841;28;20077;-67
2023/07/21 01:03:48;;;;;;;0.00;0.00;;;15.20;99.90;;;;;;5026684;28;20455;-67
2023/07/21 01:06:14;;;;;;;1.58;0.45;;;15.10;99.90;;;;;;5029335;28;20050;-67
2023/07/21 01:08:40;;;;;;;0.13;0.13;;;15.10;99.90;;;;;;5027851;28;20041;-67
2023/07/21 01:11:10;;;;;;;0.00;0.00;;;15.10;99.90;;;;;;5023718;28;20124;-67
2023/07/21 01:13:36;;;;;;;0.75;0.70;;;15.00;99.90;;;;;;5026448;28;20061;-67
2023/07/21 01:16:03;;;;;;;0.85;0.22;;;15.00;99.90;;;;;;5025876;28;20062;-67
2023/07/21 01:18:29;;;;;;;0.10;0.10;;;15.00;99.90;;;;;;5025120;28;20049;-67
2023/07/21 01:20:56;;;;;;;0.00;0.00;;;15.00;99.90;;;;;;5024717;28;20052;-67
2023/07/21 01:24:03;;;;;;;0.10;0.10;;;14.90;99.90;;;;;;5023868;28;20068;-67
2023/07/21 01:26:29;;;;;;;0.08;0.08;;;14.90;99.90;;;;;;4996083;28;20042;-67
2023/07/21 01:28:55;;;;;;;0.43;0.40;;;14.80;99.90;;;;;;5023180;28;20534;-67
2023/07/21 01:31:22;;;;;;;0.10;0.10;;;14.80;99.90;;;;;;5019303;28;20413;-67
2023/07/21 01:33:50;;;;;;;1.27;0.68;;;14.80;99.90;;;;;;5035505;28;20045;-67
2023/07/21 01:36:17;;;;;;;0.20;0.13;;;14.80;99.90;;;;;;5022229;28;20074;-67
2023/07/21 01:38:45;;;;;;;0.30;0.30;;;14.70;99.90;;;;;;5018164;28;20095;-67
2023/07/21 01:41:12;;;;;;;0.10;0.10;;;14.80;99.90;;;;;;5022230;28;20053;-67
2023/07/21 01:43:38;;;;;;;0.20;0.20;;;14.70;99.90;;;;;;5017002;28;20037;-67
2023/07/21 01:46:04;;;;;;;0.00;0.00;;;14.70;99.90;;;;;;5015781;28;20059;-67
2023/07/21 01:48:29;;;;;;;0.00;0.00;;;14.60;99.90;;;;;;5026451;28;20046;-67
2023/07/21 01:50:56;;;;;;;0.63;0.43;;;14.70;99.90;;;;;;5028620;28;20049;-67
2023/07/21 01:53:27;;;;;;;0.00;0.00;;;14.70;99.90;;;;;;5017836;28;20049;-67
2023/07/21 01:56:02;;;;;;;0.10;0.10;;;14.70;99.90;;;;;;5023455;28;20477;-67
2023/07/21 01:58:29;;;;;;;0.85;0.45;;;14.70;99.90;;;;;;5017346;28;20425;-67
2023/07/21 02:00:55;;;;;;;0.03;0.03;;;14.60;99.90;;;;;;5025216;28;20053;-67
2023/07/21 02:03:22;;;;;;;0.10;0.10;;;14.50;99.90;;;;;;5036483;28;20045;-67
2023/07/21 02:05:48;;;;;;;0.00;0.00;;;14.50;99.90;;;;;;5024775;28;20033;-67
2023/07/21 02:08:14;;;;;;;0.43;0.43;;;14.50;99.90;;;;;;5024973;28;20041;-67
2023/07/21 02:10:40;;;;;;;0.10;0.10;;;14.50;99.90;;;;;;5015716;28;20041;-67
2023/07/21 02:13:06;;;;;;;0.10;0.10;;;14.50;99.90;;;;;;5022336;28;20107;-67
2023/07/21 02:15:32;;;;;;;0.35;0.35;;;14.40;99.90;;;;;;5024302;28;20052;-67
2023/07/21 02:17:58;;;;;;;0.08;0.08;;;14.40;99.90;;;;;;5018026;28;20045;-67
2023/07/21 02:20:24;;;;;;;0.35;0.32;;;14.40;99.90;;;;;;5027129;28;20041;-67
2023/07/21 02:22:49;;;;;;;0.13;0.13;;;14.40;99.90;;;;;;5024616;28;20141;-67
2023/07/21 02:25:15;;;;;;;0.10;0.10;;;14.40;99.90;;;;;;5025663;28;20397;-67
2023/07/21 02:27:41;;;;;;;0.00;0.00;;;14.40;99.90;;;;;;5027492;28;20052;-67
2023/07/21 02:30:08;;;;;;;0.47;0.47;;;14.40;99.90;;;;;;5018528;28;20045;-67
2023/07/21 02:32:33;;;;;;;3.72;2.28;;;14.50;99.90;;;;;;5031214;28;20053;-67
2023/07/21 02:34:59;;;;;;;0.05;0.05;;;14.40;99.90;;;;;;5022818;28;20064;-67
2023/07/21 02:37:25;;;;;;;0.00;0.00;;;14.40;99.90;;;;;;5017680;28;20477;-67
2023/07/21 02:39:51;;;;;;;0.10;0.10;;;14.40;99.90;;;;;;5032660;28;20045;-67
2023/07/21 02:42:17;;;;;;;0.13;0.13;;;14.40;99.90;;;;;;5016120;28;20049;-67
2023/07/21 02:44:43;;;;;;;0.43;0.43;;;14.40;99.90;;;;;;5024303;28;20098;-67
2023/07/21 02:47:09;;;;;;;0.00;0.00;;;14.40;99.90;;;;;;5029294;28;20121;-67
2023/07/21 02:49:34;;;;;;;0.10;0.10;;;14.50;99.90;;;;;;5026845;28;20121;-67
2023/07/21 02:52:00;;;;;;;0.57;0.30;;;14.50;99.90;;;;;;5022679;28;20194;-67
2023/07/21 02:54:25;;;;;;;0.00;0.00;;;14.50;99.90;;;;;;5033015;28;20060;-67
2023/07/21 02:56:51;;;;;;;0.00;0.00;;;14.60;99.90;;;;;;5026054;28;20547;-67
2023/07/21 02:59:17;;;;;;;0.00;0.00;;;14.50;99.90;;;;;;5022716;28;20049;-67
2023/07/21 03:01:48;;;;;;;0.25;0.25;;;14.60;99.90;;;;;;5029290;28;20033;-67
2023/07/21 03:04:14;;;;;;;0.30;0.30;;;14.60;99.90;;;;;;5032554;28;20085;-67
2023/07/21 03:06:41;;;;;;;0.25;0.25;;;14.60;99.90;;;;;;5030630;28;20147;-67
2023/07/21 03:09:07;;;;;;;0.00;0.00;;;14.60;99.90;;;;;;5018716;28;20085;-67
2023/07/21 03:11:32;;;;;;;0.60;0.60;;;14.60;99.90;;;;;;5024506;28;20085;-67
2023/07/21 03:13:58;;;;;;;0.00;0.00;;;14.50;99.90;;;;;;5024313;28;20184;-67
2023/07/21 03:16:23;;;;;;;0.25;0.25;;;14.40;99.90;;;;;;5020648;28;20048;-67
2023/07/21 03:18:49;;;;;;;0.10;0.10;;;14.40;99.90;;;;;;5029077;28;20045;-67
2023/07/21 03:21:15;;;;;;;0.00;0.00;;;14.40;99.90;;;;;;5029051;28;20048;-67
2023/07/21 03:23:40;;;;;;;0.20;0.20;;;14.30;99.90;;;;;;5022846;28;20084;-67
2023/07/21 03:26:06;;;;;;;0.20;0.20;;;14.30;99.90;;;;;;5029367;28;20444;-67
2023/07/21 03:28:31;;;;;;;0.20;0.20;;;14.30;99.90;;;;;;5029641;28;20504;-67
2023/07/21 03:31:00;;;;;;;0.22;0.05;;;14.30;99.90;;;;;;5018736;28;20093;-67
2023/07/21 03:33:26;;;;;;;0.10;0.10;;;14.20;99.90;;;;;;5030473;28;20051;-67
2023/07/21 03:36:00;;;;;;;0.00;0.00;;;14.10;99.90;;;;;;5020484;28;20396;-67
2023/07/21 03:38:25;;;;;;;;;;;14.00;99.90;;;;;;5022569;28;20120;-67
2023/07/21 03:41:02;;;;;;;0.17;0.17;;;13.90;99.90;;;;;;5016907;28;19981;-67
2023/07/21 03:43:27;;;;;;;0.15;0.15;;;13.90;99.90;;;;;;5018617;28;20050;-67
2023/07/21 03:46:00;;;;;;;0.00;0.00;;;14.00;99.90;;;;;;5024250;28;20635;-67
2023/07/21 03:48:27;;;;;;;0.20;0.20;;;13.80;99.90;;;;;;5019721;28;20100;-67
2023/07/21 03:51:00;;;;;;;0.55;0.40;;;13.80;99.90;;;;;;5020759;28;20041;-67
2023/07/21 03:53:29;;;;;;;0.00;0.00;;;13.80;99.90;;;;;;5024089;28;20038;-67
2023/07/21 03:55:55;;;;;;;0.00;0.00;;;13.90;99.90;;;;;;5023271;28;20038;-67
2023/07/21 03:58:21;;;;;;;0.00;0.00;;;14.00;99.90;;;;;;5021429;28;20563;-67
2023/07/21 04:00:47;;;;;;;0.20;0.20;;;14.00;99.90;;;;;;5026715;28;20160;-67
2023/07/21 04:03:13;;;;;;;0.00;0.00;;;14.10;99.90;;;;;;5028815;28;20416;-67
2023/07/21 04:05:39;;;;;;;0.00;0.00;;;14.10;99.90;;;;;;5023595;28;20517;-67
2023/07/21 04:08:05;;;;;;;0.22;0.22;;;14.10;99.90;;;;;;5019684;28;20041;-68
2023/07/21 04:10:31;;;;;;;0.08;0.08;;;14.20;99.90;;;;;;5024172;28;20046;-67
2023/07/21 04:12:57;;;;;;;0.20;0.20;;;14.20;99.90;;;;;;5030598;28;20045;-67
2023/07/21 04:15:26;;;;;;;0.55;0.55;;;14.10;99.90;;;;;;5031710;28;20056;-67
2023/07/21 04:17:53;;;;;;;0.10;0.10;;;14.10;99.90;;;;;;5020164;28;20398;-67
2023/07/21 04:20:19;;;;;;;0.08;0.08;;;14.20;99.90;;;;;;5023687;28;20045;-67
2023/07/21 04:22:45;;;;;;;0.05;0.05;;;14.10;99.90;;;;;;5016620;28;20041;-67
2023/07/21 04:25:11;;;;;;;0.15;0.15;;;14.20;99.90;;;;;;5028278;28;20114;-67
2023/07/21 04:27:38;;;;;;;0.15;0.15;;;14.20;99.90;;;;;;5031102;28;20045;-67
2023/07/21 04:30:04;;;;;;;0.10;0.10;;;14.10;99.90;;;;;;5030215;28;20444;-67
2023/07/21 04:32:30;;;;;;;0.00;0.00;;;14.20;99.90;;;;;;5026408;28;20516;-67
2023/07/21 04:34:56;;;;;;;0.00;0.00;;;14.30;99.90;;;;;;5028880;28;20046;-68
2023/07/21 04:37:22;;;;;;;0.13;0.13;;;14.30;99.90;;;;;;5022096;28;20095;-67
2023/07/21 04:39:48;;;;;;;0.13;0.13;;;14.30;99.90;;;;;;5020770;28;20030;-67
2023/07/21 04:42:13;;;;;;;0.57;0.47;;;14.40;99.90;;;;;;5024702;28;20512;-67
2023/07/21 04:44:39;;;;;;;2.75;0.38;;;14.40;99.90;;;;;;5026396;28;20084;-67
2023/07/21 04:47:05;;;;;;;0.30;0.30;;;14.50;99.90;;;;;;5015712;28;20056;-67
2023/07/21 04:49:31;;;;;;;0.00;0.00;;;14.60;99.90;;;;;;5024366;28;20050;-67
2023/07/21 04:51:58;;;;;;;0.00;0.00;;;14.60;99.90;;;;;;5016050;28;20037;-67
2023/07/21 04:54:24;;;;;;;0.43;0.43;;;14.70;99.90;;;;;;5026810;28;20172;-67
2023/07/21 04:56:52;;;;;;;0.10;0.10;;;14.70;99.90;;;;;;5026053;28;20045;-67
2023/07/21 04:59:18;;;;;;;0.10;0.10;;;14.70;99.90;;;;;;5031352;28;21649;-67
2023/07/21 05:01:45;;;;;;;0.10;0.10;;;14.70;99.90;;;;;;5027657;28;20048;-67
2023/07/21 05:04:11;;;;;;;0.00;0.00;;;14.60;99.90;;;;;;5013702;28;20054;-67
2023/07/21 05:06:36;;;;;;;0.15;0.15;;;14.60;99.90;;;;;;5027219;28;20129;-67
2023/07/21 05:09:03;;;;;;;0.10;0.10;;;14.70;99.90;;;;;;5020613;28;20119;-67
2023/07/21 05:11:28;;;;;;;0.00;0.00;;;14.70;99.90;;;;;;5014344;28;20038;-67
2023/07/21 05:13:54;;;;;;;0.15;0.15;;;14.80;99.90;;;;;;5020158;28;20044;-67
2023/07/21 05:16:19;;;;;;;0.00;0.00;;;14.80;99.90;;;;;;5025635;28;20440;-67
2023/07/21 05:18:45;;;;;;;0.10;0.10;;;14.90;99.90;;;;;;5027929;28;20051;-67
2023/07/21 05:21:11;;;;;;;0.03;0.03;;;14.90;99.90;;;;;;5013426;28;20042;-67
2023/07/21 05:23:36;;;;;;;0.57;0.57;;;15.00;99.90;;;;;;5017917;28;20079;-67
2023/07/21 05:26:02;;;;;;;0.00;0.00;;;15.00;99.90;;;;;;5019473;28;20038;-67
2023/07/21 05:28:28;;;;;;;0.20;0.20;;;15.10;99.90;;;;;;5025684;28;20042;-67
2023/07/21 05:30:55;;;;;;;0.45;0.45;;;15.20;99.90;;;;;;5020674;28;20390;-67
2023/07/21 05:33:20;;;;;;;0.65;0.47;;;15.20;99.90;;;;;;5029441;28;20485;-67
2023/07/21 05:35:46;;;;;;;0.10;0.10;;;15.30;99.90;;;;;;5019592;28;20092;-67
2023/07/21 05:38:13;;;;;;;0.80;0.45;;;15.30;99.90;;;;;;5027491;28;20045;-67
2023/07/21 05:40:41;;;;;;;0.00;0.00;;;15.30;99.90;;;;;;5027767;28;20056;-68
2023/07/21 05:43:07;;;;;;;0.00;0.00;;;15.40;99.90;;;;;;5026519;28;20054;-67
2023/07/21 05:45:37;;;;;;;0.00;0.00;;;15.40;99.90;;;;;;5025074;28;20439;-67
2023/07/21 05:48:02;;;;;;;0.20;0.20;;;15.50;99.90;;;;;;5028115;28;20493;-67
2023/07/21 05:50:28;;;;;;;0.10;0.10;;;15.50;99.90;;;;;;5029580;28;20164;-67
2023/07/21 05:52:54;;;;;;;0.00;0.00;;;15.60;99.90;;;;;;5015123;28;20057;-67
2023/07/21 05:55:20;;;;;;;0.00;0.00;;;15.70;99.90;;;;;;5023659;28;20042;-67
2023/07/21 05:57:45;;;;;;;0.10;0.10;;;15.80;99.90;;;;;;5018097;28;20073;-67
2023/07/21 06:00:14;;;;;;;0.00;0.00;;;15.90;99.90;;;;;;5015919;28;20500;-67
2023/07/21 06:02:41;;;;;;;0.00;0.00;;;16.00;99.90;;;;;;5023032;28;20397;-67
2023/07/21 06:05:07;;;;;;;0.65;0.38;;;16.20;99.90;;;;;;5022230;28;20418;-67
2023/07/21 06:07:33;;;;;;;0.20;0.20;;;16.30;99.90;;;;;;5016383;28;20033;-67
2023/07/21 06:09:59;;;;;;;0.00;0.00;;;16.40;99.90;;;;;;5013962;28;20056;-67
2023/07/21 06:12:24;;;;;;;0.00;0.00;;;16.50;99.90;;;;;;5017918;28;20592;-67
2023/07/21 06:14:50;;;;;;;0.00;0.00;;;16.70;99.90;;;;;;5022099;28;20480;-67
2023/07/21 06:17:15;;;;;;;0.20;0.20;;;16.70;99.90;;;;;;5025389;28;20464;-67
2023/07/21 06:19:41;;;;;;;0.00;0.00;;;16.80;99.90;;;;;;5019657;28;20045;-67
2023/07/21 06:22:07;;;;;;;0.08;0.08;;;16.90;99.90;;;;;;5027486;28;20037;-67
2023/07/21 06:24:32;;;;;;;0.00;0.00;;;16.90;99.90;;;;;;5024621;28;20501;-67
2023/07/21 06:26:59;;;;;;;0.10;0.10;;;17.00;99.90;;;;;;5020437;28;20029;-67
2023/07/21 06:29:24;;;;;;;0.55;0.55;;;17.00;99.90;;;;;;5017206;28;20104;-67
2023/07/21 06:31:51;;;;;;;0.00;0.00;;;17.00;99.90;;;;;;5018051;28;21002;-67
2023/07/21 06:34:17;;;;;;;0.52;0.52;;;17.00;99.90;;;;;;5019160;28;20045;-67
2023/07/21 06:36:43;;;;;;;0.00;0.00;;;17.00;99.90;;;;;;5014368;28;20049;-67
2023/07/21 06:39:09;;;;;;;0.10;0.10;;;17.00;99.90;;;;;;5027429;28;20049;-67
2023/07/21 06:41:35;;;;;;;0.00;0.00;;;17.00;99.90;;;;;;5014014;28;20046;-67
2023/07/21 06:44:01;;;;;;;0.03;0.03;;;17.00;99.90;;;;;;5014169;28;20096;-67
2023/07/21 06:46:26;;;;;;;0.00;0.00;;;17.10;99.90;;;;;;5025550;28;20050;-67
2023/07/21 06:48:53;;;;;;;0.00;0.00;;;17.10;99.90;;;;;;5024255;28;20128;-67
2023/07/21 06:51:19;;;;;;;0.10;0.10;;;17.10;99.90;;;;;;5022203;28;20041;-67
2023/07/21 06:53:45;;;;;;;1.77;0.80;;;17.10;99.90;;;;;;5013336;28;20530;-67
2023/07/21 06:56:13;;;;;;;0.00;0.00;;;17.20;99.90;;;;;;5018318;28;20124;-67
2023/07/21 06:58:41;;;;;;;0.00;0.00;;;17.30;99.90;;;;;;5022083;28;20547;-67
2023/07/21 07:01:08;;;;;;;0.00;0.00;;;17.30;99.90;;;;;;5021853;28;20050;-67
2023/07/21 07:03:34;;;;;;;0.00;0.00;;;17.30;99.90;;;;;;5012970;28;20129;-67
2023/07/21 07:06:00;;;;;;;0.00;0.00;;;17.30;99.90;;;;;;5029611;28;20137;-67
2023/07/21 07:08:25;;;;;;;0.17;0.13;;;17.40;99.90;;;;;;5021496;28;20120;-67
2023/07/21 07:10:51;;;;;;;0.00;0.00;;;17.40;99.90;;;;;;5017426;28;20576;-67
2023/07/21 07:13:18;;;;;;;0.00;0.00;;;17.40;99.90;;;;;;5021635;28;20447;-67
2023/07/21 07:15:50;;;;;;;0.00;0.00;;;17.50;99.90;;;;;;5020285;28;20060;-67
2023/07/21 07:18:16;;;;;;;0.07;0.07;;;17.60;99.90;;;;;;5025771;28;20436;-67
2023/07/21 07:20:53;;;;;;;0.00;0.00;;;17.60;99.90;;;;;;5021903;28;20086;-67
2023/07/21 07:23:19;;;;;;;0.00;0.00;;;17.70;99.90;;;;;;5018893;28;20056;-67
2023/07/21 07:25:47;;;;;;;0.08;0.08;;;17.70;99.90;;;;;;5021053;28;20050;-67
2023/07/21 07:28:14;;;;;;;0.05;0.05;;;17.90;99.90;;;;;;5020501;28;20050;-67
2023/07/21 07:30:39;;;;;;;1.00;0.55;;;17.90;99.90;;;;;;5018193;28;20087;-67
2023/07/21 07:33:05;;;;;;;0.10;0.10;;;18.00;99.90;;;;;;5018711;28;20054;-67
2023/07/21 07:35:31;;;;;;;0.00;0.00;;;18.20;99.90;;;;;;5021493;28;20041;-67
2023/07/21 07:37:56;;;;;;;0.00;0.00;;;18.30;99.90;;;;;;5009767;28;20305;-67
2023/07/21 07:40:22;;;;;;;0.00;0.00;;;18.40;99.90;;;;;;5018094;28;20505;-67
2023/07/21 07:42:48;;;;;;;0.10;0.10;;;18.30;99.90;;;;;;5020505;28;20046;-67
2023/07/21 07:45:14;;;;;;;0.00;0.00;;;18.30;99.90;;;;;;5032992;28;20150;-67
2023/07/21 07:47:42;;;;;;;0.10;0.10;;;18.20;99.90;;;;;;5026427;28;20124;-67
2023/07/21 07:50:10;;;;;;;0.90;0.40;;;18.20;99.90;;;;;;5023705;28;20103;-67
2023/07/21 07:52:36;;;;;;;0.00;0.00;;;18.10;99.90;;;;;;5031454;28;20072;-67
2023/07/21 07:55:02;;;;;;;0.00;0.00;;;18.00;99.90;;;;;;5012849;28;20366;-67
2023/07/21 07:57:28;;;;;;;8.95;0.45;;;18.00;99.90;;;;;;5025031;28;20124;-67
2023/07/21 07:59:54;;;;;;;0.00;0.00;;;17.80;99.90;;;;;;5019952;28;20113;-67
2023/07/21 08:02:20;;;;;;;0.00;0.00;;;17.80;99.90;;;;;;5019491;28;20049;-67
2023/07/21 08:04:46;;;;;;;0.00;0.00;;;17.70;99.90;;;;;;5023578;28;20044;-68
2023/07/21 08:07:11;;;;;;;0.00;0.00;;;17.50;99.90;;;;;;5024315;28;20038;-68
2023/07/21 08:09:37;;;;;;;0.00;0.00;;;17.40;99.90;;;;;;5026460;28;20474;-68
2023/07/21 08:12:03;;;;;;;1.23;1.13;;;17.40;99.90;;;;;;5030939;28;20042;-67
2023/07/21 08:14:28;;;;;;;0.00;0.00;;;17.40;99.90;;;;;;5020461;28;20366;-68
2023/07/21 08:16:54;;;;;;;0.00;0.00;;;17.40;99.90;;;;;;5021623;28;20033;-68
2023/07/21 08:19:20;;;;;;;0.00;0.00;;;17.50;99.90;;;;;;5027629;28;20048;-68
2023/07/21 08:21:48;;;;;;;0.00;0.00;;;17.70;99.90;;;;;;5030440;28;20116;-68
2023/07/21 08:24:15;;;;;;;0.00;0.00;;;17.80;99.90;;;;;;5026025;28;20050;-69
2023/07/21 08:26:41;;;;;;;0.00;0.00;;;17.80;99.90;;;;;;5024434;28;20121;-69
2023/07/21 08:29:08;;;;;;;0.00;0.00;;;17.80;99.90;;;;;;5023177;28;20172;-69
2023/07/21 08:31:34;;;;;;;0.00;0.00;;;17.80;99.90;;;;;;5018491;28;20051;-69
2023/07/21 08:34:00;;;;;;;0.00;0.00;;;17.80;99.90;;;;;;5025552;28;20116;-68
2023/07/21 08:36:25;;;;;;;0.00;0.00;;;17.80;99.90;;;;;;5013232;28;20513;-68
2023/07/21 08:38:52;;;;;;;0.00;0.00;;;17.80;99.90;;;;;;5030802;28;20042;-69
2023/07/21 08:41:19;;;;;;;0.00;0.00;;;17.80;99.90;;;;;;5026920;28;20045;-68
2023/07/21 08:43:48;;;;;;;0.20;0.20;;;17.70;99.90;;;;;;5021848;28;20041;-68
2023/07/21 08:46:15;;;;;;;0.00;0.00;;;17.70;99.90;;;;;;5021151;28;20092;-69
2023/07/21 08:48:41;;;;;;;0.45;0.30;;;17.60;99.90;;;;;;5022536;28;20076;-68
2023/07/21 08:51:07;;;;;;;0.00;0.00;;;17.50;99.90;;;;;;5019979;28;20118;-69
2023/07/21 08:53:32;;;;;;;0.10;0.10;;;17.40;99.90;;;;;;5018135;28;20347;-69
2023/07/21 08:56:01;;;;;;;0.00;0.00;;;17.30;99.90;;;;;;5019583;28;20041;-69
2023/07/21 08:58:28;;;;;;;0.00;0.00;;;17.40;99.90;;;;;;5018023;28;20057;-68
2023/07/21 09:00:56;;;;;;;0.10;0.10;;;17.40;99.90;;;;;;5028445;28;20045;-69
2023/07/21 09:03:26;;;;;;;0.10;0.10;;;17.40;99.90;;;;;;5018762;28;20053;-69
2023/07/21 09:05:56;;;;;;;0.00;0.00;;;17.40;99.90;;;;;;5026140;28;20037;-69
2023/07/21 09:08:27;;;;;;;0.00;0.00;;;17.50;99.90;;;;;;5022086;28;20045;-68
2023/07/21 09:11:03;;;;;;;0.03;0.03;;;17.50;99.90;;;;;;5014483;28;20045;-69
2023/07/21 09:13:30;;;;;;;0.00;0.00;;;17.50;99.90;;;;;;5026311;28;20077;-69
2023/07/21 09:16:01;;;;;;;0.00;0.00;;;17.50;99.90;;;;;;5018079;28;20048;-69
2023/07/21 09:18:40;;;;;;;0.00;0.00;;;17.70;99.90;;;;;;5017857;28;20095;-68
2023/07/21 09:21:07;;;;;;;0.00;0.00;;;17.70;99.90;;;;;;5025884;28;20053;-69
2023/07/21 09:23:33;;;;;;;0.00;0.00;;;17.70;99.90;;;;;;5025570;28;20041;-69
2023/07/21 09:26:00;;;;;;;0.10;0.10;;;17.80;99.90;;;;;;5015291;28;20048;-69
2023/07/21 09:28:42;;;;;;;0.00;0.00;;;17.80;99.90;;;;;;5023415;28;20037;-68
2023/07/21 09:31:08;;;;;;;0.00;0.00;;;17.80;99.90;;;;;;5018312;28;20065;-68
2023/07/21 09:33:38;;;;;;;0.00;0.00;;;17.80;99.90;;;;;;5025207;28;20113;-69
2023/07/21 09:36:07;;;;;;;0.00;0.00;;;17.90;99.90;;;;;;5025908;28;20393;-69
2023/07/21 09:38:38;;;;;;;0.00;0.00;;;17.90;99.90;;;;;;5031671;28;20046;-69
2023/07/21 09:41:06;;;;;;;0.20;0.20;;;18.00;99.90;;;;;;5018533;28;20108;-68
2023/07/21 09:43:31;;;;;;;0.00;0.00;;;18.10;99.90;;;;;;5025984;28;20045;-69
2023/07/21 09:46:00;;;;;;;0.00;0.00;;;18.20;99.90;;;;;;5023322;28;20485;-68
2023/07/21 09:48:29;;;;;;;0.05;0.05;;;18.30;99.90;;;;;;5015261;28;20072;-68
2023/07/21 09:51:00;;;;;;;0.28;0.28;;;18.40;99.90;;;;;;5025312;28;20045;-68
2023/07/21 09:53:34;;;;;;;0.22;0.22;;;18.60;99.90;;;;;;5026546;28;20038;-68
2023/07/21 09:56:03;;;;;;;0.80;0.80;;;18.80;99.90;;;;;;5021394;28;20123;-68
2023/07/21 09:58:30;;;;;;;0.00;0.00;;;19.10;99.90;;;;;;5019214;28;20095;-68
2023/07/21 10:01:04;;;;;;;0.00;0.00;;;19.30;99.90;;;;;;5021343;28;20037;-68
2023/07/21 10:03:31;;;;;;;0.00;0.00;;;19.50;99.90;;;;;;5027620;28;20052;-68
2023/07/21 10:05:59;;;;;;;0.00;0.00;;;19.60;99.90;;;;;;5022293;28;20049;-69
2023/07/21 10:08:31;;;;;;;0.47;0.47;;;19.70;99.90;;;;;;5027113;28;20076;-69
2023/07/21 10:10:58;;;;;;;0.85;0.50;;;19.70;99.90;;;;;;5014844;28;20033;-69
2023/07/21 10:13:26;;;;;;;0.10;0.10;;;19.70;99.90;;;;;;5016796;28;20483;-69
2023/07/21 10:15:53;;;;;;;0.00;0.00;;;19.70;99.90;;;;;;5019341;28;20437;-69
2023/07/21 10:18:19;;;;;;;0.00;0.00;;;19.70;99.90;;;;;;5022507;28;20037;-69
2023/07/21 10:20:49;;;;;;;0.00;0.00;;;19.60;99.90;;;;;;5017658;28;20115;-69
2023/07/21 10:23:30;;;;;;;0.00;0.00;;;19.50;99.90;;;;;;5018611;28;20374;-69
2023/07/21 10:26:01;;;;;;;0.30;0.30;;;19.50;99.90;;;;;;5026244;28;20480;-69
2023/07/21 10:28:30;;;;;;;0.00;0.00;;;19.30;99.90;;;;;;5024132;28;20054;-68
2023/07/21 10:31:25;;;;;;;0.20;0.20;;;19.20;99.90;;;;;;5023832;28;20505;-69
2023/07/21 10:34:06;;;;;;;0.00;0.00;;;19.00;99.90;;;;;;5037160;28;20555;-69
2023/07/21 10:36:52;;;;;;;0.00;0.00;;;18.90;99.90;;;;;;5021677;28;20187;-69
2023/07/21 10:39:31;;;;;;;0.00;0.00;;;18.80;99.90;;;;;;5022406;28;20049;-68
2023/07/21 10:41:58;;;;;;;0.00;0.00;;;18.70;99.90;;;;;;5025573;28;20041;-68
2023/07/21 10:44:38;;;;;;;0.35;0.35;;;18.70;99.90;;;;;;5023218;28;20050;-68
2023/07/21 10:47:30;;;;;;;0.00;0.00;;;18.70;99.90;;;;;;5014191;28;20489;-69
2023/07/21 10:49:56;;;;;;;0.10;0.10;;;18.70;99.90;;;;;;5025115;28;20118;-69
2023/07/21 10:52:22;;;;;;;0.00;0.00;;;18.70;99.90;;;;;;5018981;28;20038;-69
2023/07/21 10:54:48;;;;;;;0.00;0.00;;;18.70;99.90;;;;;;5013126;28;20474;-69
2023/07/21 10:57:13;;;;;;;0.08;0.08;;;18.70;99.90;;;;;;5023921;28;20056;-69
2023/07/21 10:59:39;;;;;;;0.00;0.00;;;18.70;99.90;;;;;;5022286;28;20049;-69
2023/07/21 11:02:08;;;;;;;0.30;0.30;;;18.80;99.90;;;;;;5018425;28;20077;-69
2023/07/21 11:04:34;;;;;;;0.00;0.00;;;18.70;99.90;;;;;;5028511;28;20064;-69
2023/07/21 11:07:00;;;;;;;0.00;0.00;;;18.70;99.90;;;;;;5022459;28;20485;-69
2023/07/21 11:09:27;;;;;;;0.13;0.13;;;18.50;99.90;;;;;;5016859;28;20038;-69
2023/07/21 11:11:55;;;;;;;0.10;0.10;;;18.40;99.90;;;;;;5023585;28;20069;-69
2023/07/21 11:14:25;;;;;;;0.25;0.25;;;18.20;99.90;;;;;;5024791;28;20058;-68
2023/07/21 11:17:01;;;;;;;0.00;0.00;;;17.90;99.90;;;;;;5024282;28;20072;-69
2023/07/21 11:19:28;;;;;;;0.00;0.00;;;17.70;99.90;;;;;;5028847;28;20132;-69
2023/07/21 11:21:55;;;;;;;2.30;1.73;;;17.60;99.90;;;;;;5029543;28;20106;-69
2023/07/21 11:24:30;;;;;;;0.03;0.03;;;17.50;99.90;;;;;;5024120;28;20550;-69
2023/07/21 11:27:02;;;;;;;0.05;0.05;;;17.50;99.90;;;;;;5020449;28;20065;-69
2023/07/21 11:29:32;;;;;;;0.10;0.10;;;17.70;99.90;;;;;;5028672;28;20057;-69
2023/07/21 11:31:58;;;;;;;0.00;0.00;;;17.70;99.90;;;;;;5034121;28;20066;-69
2023/07/21 11:34:25;;;;;;;0.40;0.40;;;17.70;99.90;;;;;;5019372;28;20041;-68
2023/07/21 11:37:09;;;;;;;0.00;0.00;;;17.60;99.90;;;;;;5028399;28;20171;-69
2023/07/21 11:39:34;;;;;;;0.45;0.45;;;17.60;99.90;;;;;;5013593;28;20061;-69
2023/07/21 11:42:00;;;;;;;0.20;0.17;;;17.50;99.90;;;;;;5019901;28;20638;-69
2023/07/21 11:44:31;;;;;;;0.00;0.00;;;17.40;99.90;;;;;;5024986;28;20048;-69
2023/07/21 11:47:11;;;;;;;0.15;0.10;;;17.40;99.90;;;;;;5025519;28;20103;-69
2023/07/21 11:49:40;;;;;;;0.00;0.00;;;17.30;99.90;;;;;;5026031;28;20068;-69
2023/07/21 11:52:07;;;;;;;0.98;0.25;;;17.30;99.90;;;;;;5032349;28;20052;-69
2023/07/21 11:54:43;;;;;;;1.20;1.10;;;17.30;99.90;;;;;;5028975;28;20049;-69
2023/07/21 11:57:11;;;;;;;0.00;0.00;;;17.20;99.90;;;;;;5025374;28;20042;-69
2023/07/21 11:59:37;;;;;;;0.45;0.45;;;17.20;99.90;;;;;;5023413;28;20110;-69
2023/07/21 12:02:05;;;;;;;0.00;0.00;;;17.20;99.90;;;;;;5021104;28;20060;-69
2023/07/21 12:04:32;;;;;;;0.10;0.10;;;17.30;99.90;;;;;;5027632;28;20049;-69
2023/07/21 12:06:59;;;;;;;0.00;0.00;;;17.10;99.90;;;;;;5026256;28;20050;-69
2023/07/21 12:09:25;;;;;;;0.40;0.32;;;17.10;99.90;;;;;;5022419;28;20473;-69
2023/07/21 12:11:54;;;;;;;0.00;0.00;;;16.90;99.90;;;;;;5031035;28;20049;-69
2023/07/21 12:14:19;;;;;;;2.40;0.40;;;16.90;99.90;;;;;;5020500;28;20123;-69
2023/07/21 12:16:45;;;;;;;1.30;0.68;;;16.80;99.90;;;;;;5024379;28;20050;-70
2023/07/21 12:19:12;;;;;;;0.10;0.10;;;16.80;99.90;;;;;;5030747;28;20053;-70
2023/07/21 12:21:37;;;;;;;0.00;0.00;;;16.70;99.90;;;;;;5018197;28;20080;-69
2023/07/21 12:24:03;;;;;;;0.00;0.00;;;16.60;99.90;;;;;;5015642;28;20072;-69
2023/07/21 12:26:29;;;;;;;0.00;0.00;;;16.70;99.90;;;;;;5023858;28;20116;-69
2023/07/21 12:28:55;;;;;;;0.00;0.00;;;16.70;99.90;;;;;;5019167;28;20046;-70
2023/07/21 12:31:21;;;;;;;0.00;0.00;;;16.60;99.90;;;;;;5023898;28;20046;-69
2023/07/21 12:33:48;;;;;;;0.43;0.43;;;16.60;99.90;;;;;;5025483;28;20054;-69
2023/07/21 12:36:15;;;;;;;0.32;0.30;;;16.50;99.90;;;;;;5019169;28;20081;-69
2023/07/21 12:38:41;;;;;;;0.00;0.00;;;16.40;99.90;;;;;;5025547;28;20139;-68
2023/07/21 12:41:07;;;;;;;0.05;0.05;;;16.40;99.90;;;;;;5018856;28;20050;-69
2023/07/21 12:43:33;;;;;;;0.17;0.17;;;16.40;99.90;;;;;;5019724;28;20038;-69
2023/07/21 12:46:02;;;;;;;0.00;0.00;;;16.40;99.90;;;;;;5020667;28;20501;-69
2023/07/21 12:48:30;;;;;;;0.00;0.00;;;16.50;99.90;;;;;;5022077;28;20049;-69